Time;durP1;ratioP1;P1;durP2;ratioP2;P2;SDS_P1;SDS_P2;PMS_P1;PMS_P2;Temp;Humidity;BMP_temperature;BMP_pressure;BME280_temperature;BME280_humidity;BME280_pressure;Samples;Min_cycle;Max_cycle;Signal;HPM_P1;HPM_P2
2021/04/10 00:00:20;;;;;;;9.82;4.40;;;10.60;58.70;;;;;;5089177;28;20024;-65
2021/04/10 00:02:47;;;;;;;10.50;4.10;;;10.50;59.10;;;;;;5089766;28;20488;-63
2021/04/10 00:05:13;;;;;;;8.85;4.35;;;10.40;59.50;;;;;;5088974;28;20671;-64
2021/04/10 00:07:39;;;;;;;7.93;3.88;;;10.30;59.60;;;;;;5090252;28;20063;-63
2021/04/10 00:10:07;;;;;;;6.32;3.60;;;10.20;60.00;;;;;;5090193;28;20059;-63
2021/04/10 00:12:33;;;;;;;6.15;3.55;;;10.10;60.60;;;;;;5090943;28;20442;-64
2021/04/10 00:14:58;;;;;;;7.22;3.55;;;10.00;61.20;;;;;;5089919;28;20068;-63
2021/04/10 00:17:24;;;;;;;8.52;3.70;;;9.90;61.20;;;;;;5093136;28;20024;-62
2021/04/10 00:19:50;;;;;;;6.20;3.25;;;9.80;60.90;;;;;;5094968;28;20129;-63
2021/04/10 00:22:15;;;;;;;5.10;2.92;;;9.70;61.00;;;;;;5093576;28;20435;-63
2021/04/10 00:24:41;;;;;;;6.50;2.60;;;9.70;61.10;;;;;;5094596;28;20024;-62
2021/04/10 00:27:07;;;;;;;5.38;2.38;;;9.60;61.20;;;;;;5093274;28;21190;-65
2021/04/10 00:29:32;;;;;;;5.95;3.42;;;9.60;60.70;;;;;;5094614;28;20032;-63
2021/04/10 00:31:58;;;;;;;5.20;2.20;;;9.60;60.70;;;;;;5093590;28;20051;-65
2021/04/10 00:34:23;;;;;;;7.60;2.33;;;9.60;60.30;;;;;;5094097;28;20028;-65
2021/04/10 00:36:49;;;;;;;5.45;2.17;;;9.70;60.30;;;;;;5094112;28;20031;-62
2021/04/10 00:39:14;;;;;;;6.95;2.03;;;9.70;60.30;;;;;;5093499;28;20036;-63
2021/04/10 00:41:40;;;;;;;4.30;2.00;;;9.80;60.10;;;;;;5076003;28;20441;-65
2021/04/10 00:44:06;;;;;;;6.03;2.13;;;9.80;60.00;;;;;;5093508;28;20024;-64
2021/04/10 00:46:32;;;;;;;7.15;1.70;;;9.80;60.10;;;;;;5093700;28;20082;-65
2021/04/10 00:48:57;;;;;;;2.88;1.52;;;9.90;59.50;;;;;;5093217;28;20043;-63
2021/04/10 00:51:23;;;;;;;4.85;1.70;;;9.90;59.60;;;;;;5094179;28;20028;-65
2021/04/10 00:53:50;;;;;;;4.53;2.08;;;9.90;58.90;;;;;;5094098;28;20028;-64
2021/04/10 00:56:16;;;;;;;5.60;1.98;;;10.00;59.30;;;;;;5093172;28;20036;-64
2021/04/10 00:58:42;;;;;;;5.53;1.92;;;10.00;59.40;;;;;;5093466;28;20036;-66
2021/04/10 01:01:08;;;;;;;6.47;1.80;;;10.00;59.00;;;;;;5093879;28;20097;-63
2021/04/10 01:03:35;;;;;;;5.53;1.88;;;10.00;59.40;;;;;;5094472;28;20512;-63
2021/04/10 01:06:01;;;;;;;4.43;1.92;;;10.10;59.00;;;;;;5092439;28;20051;-65
2021/04/10 01:08:30;;;;;;;5.13;1.55;;;10.20;58.90;;;;;;5093799;28;20028;-64
2021/04/10 01:11:34;;;;;;;3.60;1.30;;;10.20;58.40;;;;;;5093336;28;20043;-65
2021/04/10 01:14:15;;;;;;;5.75;1.50;;;10.40;57.10;;;;;;5000932;28;20073;-63
2021/04/10 01:16:51;;;;;;;3.97;1.50;;;10.70;56.20;;;;;;5093834;28;20051;-63
2021/04/10 01:19:34;;;;;;;7.55;1.30;;;10.90;55.20;;;;;;5091713;28;20119;-64
2021/04/10 01:22:22;;;;;;;3.55;1.65;;;11.10;54.50;;;;;;5092577;28;20540;-64
2021/04/10 01:24:54;;;;;;;5.22;1.40;;;11.20;54.30;;;;;;5068781;28;20415;-65
2021/04/10 01:27:43;;;;;;;4.05;1.70;;;11.50;53.60;;;;;;5089990;28;20131;-62
2021/04/10 01:30:17;;;;;;;3.90;1.38;;;11.60;53.30;;;;;;5092636;28;20036;-63
2021/04/10 01:32:52;;;;;;;4.43;1.58;;;11.70;52.90;;;;;;5093316;28;20488;-60
2021/04/10 01:35:20;;;;;;;3.03;1.33;;;11.80;52.60;;;;;;5092512;28;20081;-65
2021/04/10 01:38:04;;;;;;;6.65;1.48;;;11.90;52.30;;;;;;5092556;28;20063;-62
2021/04/10 01:40:33;;;;;;;5.50;1.58;;;12.00;52.20;;;;;;5093306;28;20077;-62
2021/04/10 01:43:00;;;;;;;5.57;1.58;;;12.00;52.20;;;;;;5092120;28;20016;-65
2021/04/10 01:45:28;;;;;;;5.10;1.70;;;12.10;52.10;;;;;;5093264;28;20035;-61
2021/04/10 01:47:58;;;;;;;4.90;1.52;;;12.10;52.00;;;;;;5093122;28;20032;-65
2021/04/10 01:50:24;;;;;;;;;;;12.10;52.00;;;;;;5092197;28;20024;-63
2021/04/10 01:52:51;;;;;;;6.68;1.20;;;12.10;52.00;;;;;;5092871;28;20287;-63
2021/04/10 01:55:17;;;;;;;3.17;1.30;;;12.10;52.00;;;;;;5092091;28;20024;-65
2021/04/10 01:57:43;;;;;;;5.63;1.50;;;12.10;52.10;;;;;;5092364;28;20036;-61
2021/04/10 02:00:11;;;;;;;4.55;1.13;;;12.10;52.20;;;;;;5092166;28;20028;-63
2021/04/10 02:02:41;;;;;;;5.45;1.20;;;12.10;52.20;;;;;;5092280;28;20024;-63
2021/04/10 02:05:13;;;;;;;3.60;1.15;;;12.10;52.30;;;;;;5092161;28;20093;-62
2021/04/10 02:07:42;;;;;;;3.88;1.05;;;12.10;52.40;;;;;;5092781;28;20028;-65
2021/04/10 02:10:10;;;;;;;3.72;1.27;;;12.10;52.50;;;;;;5091866;28;20036;-65
2021/04/10 02:12:36;;;;;;;3.83;1.38;;;12.00;52.60;;;;;;5092686;28;20020;-65
2021/04/10 02:15:04;;;;;;;3.70;1.10;;;12.00;52.80;;;;;;5091891;28;20040;-64
2021/04/10 02:17:29;;;;;;;4.53;1.20;;;12.00;52.80;;;;;;5092731;28;20032;-64
2021/04/10 02:19:56;;;;;;;4.55;1.40;;;12.00;53.10;;;;;;5092097;28;20055;-66
2021/04/10 02:22:23;;;;;;;6.38;1.42;;;11.90;53.00;;;;;;5073979;28;20036;-63
2021/04/10 02:24:49;;;;;;;4.20;1.30;;;11.90;53.20;;;;;;5092731;28;20032;-65
2021/04/10 02:27:15;;;;;;;7.57;1.30;;;11.90;53.50;;;;;;5091597;28;20107;-63
2021/04/10 02:29:43;;;;;;;3.85;1.55;;;11.80;53.60;;;;;;5092028;28;20115;-66
2021/04/10 02:32:22;;;;;;;6.15;1.50;;;11.80;53.80;;;;;;5091792;28;20024;-63
2021/04/10 02:35:13;;;;;;;2.75;1.30;;;11.80;53.90;;;;;;5092355;28;20109;-63
2021/04/10 02:37:40;;;;;;;4.07;1.38;;;11.80;53.80;;;;;;5091258;28;20074;-63
2021/04/10 02:40:07;;;;;;;5.88;1.70;;;11.80;54.70;;;;;;5089874;28;20034;-63
2021/04/10 02:42:39;;;;;;;6.53;1.20;;;11.70;54.10;;;;;;5091888;28;20185;-64
2021/04/10 02:45:06;;;;;;;2.55;1.23;;;11.80;54.10;;;;;;5091228;28;20020;-65
2021/04/10 02:47:34;;;;;;;4.00;1.23;;;11.70;54.30;;;;;;5079680;28;20048;-64
2021/04/10 02:50:05;;;;;;;6.03;1.48;;;11.60;54.60;;;;;;5091021;28;20054;-64
2021/04/10 02:52:37;;;;;;;2.25;1.42;;;11.60;54.80;;;;;;5091633;28;20036;-62
2021/04/10 02:55:05;;;;;;;4.82;1.30;;;11.60;54.90;;;;;;5091243;28;20032;-64
2021/04/10 02:57:33;;;;;;;4.40;1.10;;;11.50;55.00;;;;;;5091536;28;20040;-62
2021/04/10 03:00:02;;;;;;;2.78;1.30;;;11.50;55.10;;;;;;5091355;28;20028;-64
2021/04/10 03:02:29;;;;;;;5.78;1.27;;;11.50;55.30;;;;;;5091707;28;20024;-61
2021/04/10 03:04:56;;;;;;;5.95;1.38;;;11.60;55.40;;;;;;5091583;28;20036;-61
2021/04/10 03:07:23;;;;;;;3.92;1.15;;;11.50;55.50;;;;;;5073224;28;20038;-61
2021/04/10 03:09:49;;;;;;;2.75;1.23;;;11.60;55.50;;;;;;5091704;28;20085;-63
2021/04/10 03:12:16;;;;;;;2.45;1.10;;;11.60;55.70;;;;;;5091037;28;20028;-63
2021/04/10 03:14:43;;;;;;;4.28;1.17;;;11.60;55.70;;;;;;5092079;28;20079;-62
2021/04/10 03:17:12;;;;;;;4.20;1.30;;;11.60;55.80;;;;;;5091752;28;20028;-64
2021/04/10 03:19:40;;;;;;;7.93;1.27;;;11.60;55.90;;;;;;5091646;28;20619;-63
2021/04/10 03:22:05;;;;;;;2.33;1.08;;;11.70;55.80;;;;;;5087318;28;20048;-61
2021/04/10 03:24:31;;;;;;;3.25;1.38;;;11.70;55.60;;;;;;5091981;28;20047;-62
2021/04/10 03:26:57;;;;;;;3.60;1.17;;;11.70;55.80;;;;;;5092475;28;20028;-63
2021/04/10 03:29:24;;;;;;;6.85;1.45;;;11.70;55.80;;;;;;5073548;28;20032;-63
2021/04/10 03:31:50;;;;;;;4.35;1.08;;;11.80;55.90;;;;;;5092972;28;20032;-62
2021/04/10 03:34:16;;;;;;;2.25;0.80;;;11.70;56.00;;;;;;5091767;28;20378;-62
2021/04/10 03:36:42;;;;;;;5.10;1.30;;;11.70;55.70;;;;;;5092148;28;20035;-64
2021/04/10 03:39:08;;;;;;;8.63;2.28;;;11.80;56.10;;;;;;5091550;28;20028;-63
2021/04/10 03:41:34;;;;;;;2.88;1.23;;;11.80;56.10;;;;;;5092143;28;20025;-61
2021/04/10 03:44:00;;;;;;;3.78;1.08;;;11.70;56.40;;;;;;5091755;28;20050;-64
2021/04/10 03:46:26;;;;;;;3.35;1.20;;;11.70;56.80;;;;;;5091376;28;20032;-63
2021/04/10 03:48:52;;;;;;;4.60;1.30;;;11.60;57.00;;;;;;5092262;28;20035;-62
2021/04/10 03:51:18;;;;;;;4.47;1.10;;;11.60;57.60;;;;;;5091266;28;20039;-60
2021/04/10 03:53:43;;;;;;;3.42;1.15;;;11.60;57.90;;;;;;5095405;28;20107;-63
2021/04/10 03:56:10;;;;;;;3.13;1.42;;;11.60;58.40;;;;;;5095117;28;20448;-61
2021/04/10 03:58:36;;;;;;;2.88;1.20;;;11.70;58.50;;;;;;5094385;28;20036;-62
2021/04/10 04:01:01;;;;;;;2.78;1.08;;;11.70;58.70;;;;;;5094338;28;20024;-63
2021/04/10 04:03:27;;;;;;;3.90;1.13;;;11.60;58.80;;;;;;5095438;28;20039;-62
2021/04/10 04:05:52;;;;;;;2.40;0.93;;;11.60;59.40;;;;;;5095371;28;20178;-64
2021/04/10 04:08:18;;;;;;;5.63;1.58;;;11.60;59.60;;;;;;5094274;28;20028;-62
2021/04/10 04:10:44;;;;;;;2.67;1.05;;;11.50;59.70;;;;;;5077420;28;20452;-64
2021/04/10 04:13:09;;;;;;;2.47;1.02;;;11.60;59.90;;;;;;5093732;28;20028;-63
2021/04/10 04:15:35;;;;;;;4.75;1.50;;;11.50;60.00;;;;;;5095302;28;20292;-64
2021/04/10 04:18:01;;;;;;;5.40;1.20;;;11.40;60.20;;;;;;5094507;28;20061;-65
2021/04/10 04:20:26;;;;;;;3.88;1.02;;;11.50;60.90;;;;;;5094061;28;20024;-62
2021/04/10 04:22:52;;;;;;;4.93;1.10;;;11.40;60.90;;;;;;5094798;28;20031;-62
2021/04/10 04:25:18;;;;;;;7.03;1.20;;;11.40;61.00;;;;;;5094046;28;20032;-63
2021/04/10 04:27:44;;;;;;;2.00;1.02;;;11.40;61.10;;;;;;5093608;28;20043;-64
2021/04/10 04:30:13;;;;;;;6.53;1.23;;;11.40;61.30;;;;;;5093783;28;20032;-62
2021/04/10 04:32:38;;;;;;;6.95;1.27;;;11.30;61.40;;;;;;5093807;28;20468;-62
2021/04/10 04:35:04;;;;;;;3.70;1.25;;;11.30;61.60;;;;;;5075881;28;20031;-63
2021/04/10 04:37:30;;;;;;;6.75;1.20;;;11.30;61.50;;;;;;5094606;28;20036;-61
2021/04/10 04:39:56;;;;;;;3.85;1.40;;;11.30;61.60;;;;;;5094244;28;20067;-63
2021/04/10 04:42:21;;;;;;;2.95;1.00;;;11.30;61.50;;;;;;5093613;28;20024;-63
2021/04/10 04:44:47;;;;;;;1.98;0.90;;;11.30;61.70;;;;;;5076127;28;20031;-62
2021/04/10 04:47:13;;;;;;;3.50;1.42;;;11.30;61.50;;;;;;5093032;28;20035;-62
2021/04/10 04:49:38;;;;;;;6.90;1.33;;;11.30;61.40;;;;;;5093295;28;20131;-64
2021/04/10 04:52:04;;;;;;;2.70;1.17;;;11.30;61.50;;;;;;5093175;28;20032;-65
2021/04/10 04:54:30;;;;;;;3.17;1.25;;;11.20;61.60;;;;;;5093060;28;20032;-64
2021/04/10 04:56:56;;;;;;;7.68;1.27;;;11.20;61.80;;;;;;5092206;28;20039;-64
2021/04/10 04:59:21;;;;;;;1.95;1.00;;;11.20;61.60;;;;;;5091319;28;20039;-64
2021/04/10 05:01:47;;;;;;;2.95;0.93;;;11.20;61.50;;;;;;5073616;28;20031;-61
2021/04/10 05:04:13;;;;;;;4.05;1.45;;;11.20;61.60;;;;;;5090148;28;20153;-65
2021/04/10 05:06:39;;;;;;;2.38;1.10;;;11.20;62.30;;;;;;5091560;28;20107;-61
2021/04/10 05:09:05;;;;;;;5.75;1.40;;;11.20;62.80;;;;;;5089403;28;20028;-62
2021/04/10 05:11:31;;;;;;;1.55;1.10;;;11.10;63.70;;;;;;5073698;28;20032;-61
2021/04/10 05:13:56;;;;;;;1.83;0.80;;;11.00;65.00;;;;;;5091660;28;20374;-61
2021/04/10 05:16:22;;;;;;;2.22;1.30;;;10.80;68.10;;;;;;5090805;28;20089;-62
2021/04/10 05:18:48;;;;;;;2.83;1.10;;;10.60;70.00;;;;;;5091639;28;20024;-61
2021/04/10 05:21:14;;;;;;;3.33;0.95;;;10.50;70.70;;;;;;5090394;28;20036;-64
2021/04/10 05:23:39;;;;;;;3.38;1.17;;;10.30;71.50;;;;;;5091791;28;20020;-62
2021/04/10 05:26:05;;;;;;;4.68;1.50;;;10.20;72.20;;;;;;5090382;28;20031;-63
2021/04/10 05:28:31;;;;;;;2.70;0.90;;;10.20;72.40;;;;;;5090731;28;20043;-62
2021/04/10 05:31:01;;;;;;;2.75;1.15;;;10.20;72.50;;;;;;5091365;28;20524;-63
2021/04/10 05:33:31;;;;;;;4.10;1.50;;;10.10;73.00;;;;;;5090360;28;20035;-64
2021/04/10 05:35:57;;;;;;;3.35;1.10;;;10.10;73.00;;;;;;5087755;28;20431;-61
2021/04/10 05:38:23;;;;;;;3.28;1.10;;;10.10;72.70;;;;;;5090950;28;20093;-62
2021/04/10 05:40:49;;;;;;;3.33;1.40;;;10.10;72.10;;;;;;5091076;28;20024;-63
2021/04/10 05:43:14;;;;;;;2.65;1.20;;;10.20;71.40;;;;;;5090150;28;20031;-64
2021/04/10 05:45:40;;;;;;;4.78;1.30;;;10.20;71.10;;;;;;5090489;28;20024;-65
2021/04/10 05:48:06;;;;;;;3.33;1.00;;;10.20;71.00;;;;;;5071804;28;20044;-64
2021/04/10 05:50:32;;;;;;;6.40;1.83;;;10.20;70.70;;;;;;5090983;28;20392;-64
2021/04/10 05:52:58;;;;;;;4.38;1.13;;;10.20;70.10;;;;;;5090475;28;20028;-65
2021/04/10 05:55:24;;;;;;;1.92;1.15;;;10.30;69.60;;;;;;5089629;28;20027;-63
2021/04/10 05:57:50;;;;;;;2.85;1.40;;;10.30;69.50;;;;;;5090702;28;20028;-63
2021/04/10 06:00:16;;;;;;;3.78;1.10;;;10.30;69.60;;;;;;5089682;28;20781;-64
2021/04/10 06:02:42;;;;;;;2.47;1.08;;;10.40;68.40;;;;;;5072614;28;20035;-63
2021/04/10 06:05:08;;;;;;;4.13;0.93;;;10.40;68.00;;;;;;5071542;28;20397;-64
2021/04/10 06:07:34;;;;;;;1.70;1.25;;;10.50;67.40;;;;;;5090368;28;20056;-63
2021/04/10 06:09:59;;;;;;;3.53;1.42;;;10.50;66.90;;;;;;5090704;28;20032;-62
2021/04/10 06:12:25;;;;;;;3.65;0.90;;;10.60;67.10;;;;;;5089895;28;20449;-63
2021/04/10 06:14:51;;;;;;;1.08;0.98;;;10.60;66.80;;;;;;5071581;28;20047;-65
2021/04/10 06:17:17;;;;;;;6.80;1.60;;;10.60;66.60;;;;;;5089584;28;20073;-64
2021/04/10 06:19:43;;;;;;;7.43;1.20;;;10.60;66.70;;;;;;5090240;28;20028;-62
2021/04/10 06:22:09;;;;;;;4.18;0.98;;;10.60;66.70;;;;;;5089301;28;20031;-64
2021/04/10 06:24:34;;;;;;;10.07;1.05;;;10.50;66.70;;;;;;5090130;28;20031;-62
2021/04/10 06:27:00;;;;;;;4.20;1.45;;;10.60;66.70;;;;;;5090078;28;20385;-62
2021/04/10 06:29:25;;;;;;;3.13;1.25;;;10.60;66.60;;;;;;5088807;28;20857;-64
2021/04/10 06:31:51;;;;;;;6.40;1.50;;;10.60;66.90;;;;;;5071750;28;20036;-64
2021/04/10 06:34:17;;;;;;;3.45;1.00;;;10.60;66.90;;;;;;5088830;28;20024;-63
2021/04/10 06:36:43;;;;;;;3.30;1.25;;;10.60;67.10;;;;;;5090237;28;20082;-64
2021/04/10 06:39:08;;;;;;;5.72;1.20;;;10.70;67.00;;;;;;5089323;28;20036;-65
2021/04/10 06:41:34;;;;;;;6.88;1.67;;;10.70;66.80;;;;;;5089867;28;20028;-62
2021/04/10 06:44:01;;;;;;;3.55;1.50;;;10.70;67.00;;;;;;5089978;28;20020;-64
2021/04/10 06:46:31;;;;;;;3.67;1.17;;;10.70;67.00;;;;;;5088050;28;20024;-63
2021/04/10 06:48:58;;;;;;;2.78;1.13;;;10.70;67.20;;;;;;5087293;28;20035;-63
2021/04/10 06:51:25;;;;;;;5.70;1.30;;;10.70;67.80;;;;;;5089278;28;20050;-64
2021/04/10 06:53:53;;;;;;;2.83;1.10;;;10.80;67.10;;;;;;5089505;28;20469;-65
2021/04/10 06:56:23;;;;;;;3.17;1.10;;;10.80;67.40;;;;;;5086755;28;20028;-65
2021/04/10 06:58:56;;;;;;;2.90;1.15;;;10.80;67.40;;;;;;5089936;28;20096;-66
2021/04/10 07:01:23;;;;;;;3.90;1.20;;;10.80;67.40;;;;;;5086997;28;20039;-64
2021/04/10 07:03:52;;;;;;;3.85;1.20;;;10.90;67.50;;;;;;5089567;28;20380;-62
2021/04/10 07:06:19;;;;;;;3.13;1.20;;;10.90;67.70;;;;;;5086574;28;20024;-62
2021/04/10 07:08:45;;;;;;;3.72;1.35;;;10.80;70.10;;;;;;5089575;28;20020;-62
2021/04/10 07:11:13;;;;;;;3.95;1.10;;;10.70;72.30;;;;;;5088220;28;20075;-65
2021/04/10 07:13:40;;;;;;;2.85;1.40;;;10.50;73.70;;;;;;5089753;28;20032;-63
2021/04/10 07:16:06;;;;;;;2.50;0.98;;;10.40;74.90;;;;;;5088337;28;20040;-67
2021/04/10 07:18:32;;;;;;;5.05;1.58;;;10.30;73.90;;;;;;5088758;28;20065;-64
2021/04/10 07:21:18;;;;;;;1.88;1.10;;;10.30;75.20;;;;;;5089647;28;20111;-62
2021/04/10 07:23:53;;;;;;;3.90;1.50;;;10.30;74.70;;;;;;5087851;28;20055;-63
2021/04/10 07:26:40;;;;;;;4.00;1.30;;;10.30;74.50;;;;;;5088750;28;20124;-63
2021/04/10 07:29:25;;;;;;;5.60;1.20;;;10.40;74.50;;;;;;5080360;28;20086;-66
2021/04/10 07:31:51;;;;;;;5.65;1.55;;;10.40;73.70;;;;;;5095690;28;20045;-63
2021/04/10 07:34:21;;;;;;;5.57;1.80;;;10.50;72.80;;;;;;5094981;28;20024;-64
2021/04/10 07:36:57;;;;;;;3.67;1.05;;;10.60;72.30;;;;;;5078357;28;20028;-63
2021/04/10 07:39:23;;;;;;;4.25;1.20;;;10.70;71.60;;;;;;5093206;28;20031;-64
2021/04/10 07:42:03;;;;;;;2.15;1.30;;;10.70;70.90;;;;;;5096202;28;20020;-60
2021/04/10 07:44:39;;;;;;;4.22;1.63;;;10.80;70.60;;;;;;5094440;28;20020;-65
2021/04/10 07:47:08;;;;;;;6.25;1.60;;;10.80;70.90;;;;;;5093489;28;20036;-64
2021/04/10 07:49:34;;;;;;;4.15;1.17;;;10.80;70.70;;;;;;5095975;28;20546;-64
2021/04/10 07:52:04;;;;;;;3.78;1.50;;;10.80;70.00;;;;;;5093601;28;20114;-68
2021/04/10 07:54:43;;;;;;;2.65;1.38;;;10.90;70.10;;;;;;5077405;28;20077;-64
2021/04/10 07:57:11;;;;;;;3.20;1.17;;;10.80;69.70;;;;;;5094308;28;20036;-64
2021/04/10 07:59:45;;;;;;;3.83;1.40;;;10.80;69.80;;;;;;5093057;28;20032;-64
2021/04/10 08:02:13;;;;;;;4.22;1.27;;;10.80;70.10;;;;;;5095515;28;20513;-81
2021/04/10 08:04:40;;;;;;;4.75;1.70;;;10.80;69.90;;;;;;5095926;28;20020;-66
2021/04/10 08:07:07;;;;;;;7.00;1.30;;;10.80;70.80;;;;;;5095118;28;20043;-67
2021/04/10 08:09:38;;;;;;;3.00;1.17;;;10.80;70.70;;;;;;5095884;28;20031;-66
2021/04/10 08:12:09;;;;;;;3.38;1.20;;;10.80;72.00;;;;;;5095207;28;20028;-71
2021/04/10 08:14:42;;;;;;;5.60;1.30;;;10.80;73.90;;;;;;5095463;28;20052;-67
2021/04/10 08:17:08;;;;;;;2.22;1.40;;;10.70;75.50;;;;;;5095130;28;20136;-69
2021/04/10 08:19:35;;;;;;;4.57;1.27;;;10.60;77.70;;;;;;5095722;28;20103;-66
2021/04/10 08:22:05;;;;;;;4.28;1.40;;;10.40;78.20;;;;;;5096017;28;20433;-68
2021/04/10 08:24:37;;;;;;;3.13;1.33;;;10.20;79.90;;;;;;5095478;28;20074;-68
2021/04/10 08:27:03;;;;;;;3.90;1.50;;;10.20;79.30;;;;;;5093816;28;20032;-66
2021/04/10 08:29:30;;;;;;;2.70;1.35;;;10.20;78.60;;;;;;5094752;28;20399;-63
2021/04/10 08:31:57;;;;;;;3.30;1.48;;;10.30;78.70;;;;;;5095667;28;20116;-65
2021/04/10 08:34:23;;;;;;;3.35;1.10;;;10.40;77.30;;;;;;5094968;28;20078;-63
2021/04/10 08:36:57;;;;;;;2.63;1.15;;;10.40;76.50;;;;;;5095508;28;20546;-61
2021/04/10 08:39:27;;;;;;;3.80;1.15;;;10.50;75.30;;;;;;5089511;28;20105;-63
2021/04/10 08:41:55;;;;;;;2.83;1.17;;;10.60;75.60;;;;;;5092248;28;20102;-65
2021/04/10 08:44:24;;;;;;;4.00;0.85;;;10.60;75.00;;;;;;5091345;28;20485;-63
2021/04/10 08:46:51;;;;;;;8.30;1.55;;;10.70;74.50;;;;;;5086115;28;20074;-67
2021/04/10 08:49:19;;;;;;;2.53;1.25;;;10.70;74.50;;;;;;5092321;28;20044;-63
2021/04/10 08:51:47;;;;;;;3.53;1.23;;;10.80;73.90;;;;;;5093326;28;20077;-63
2021/04/10 08:54:13;;;;;;;2.25;1.00;;;10.90;74.00;;;;;;5092295;28;20031;-62
2021/04/10 08:56:40;;;;;;;1.42;1.00;;;11.10;71.60;;;;;;5093408;28;20071;-60
2021/04/10 08:59:11;;;;;;;5.25;1.80;;;11.10;71.80;;;;;;5092838;28;20074;-65
2021/04/10 09:01:39;;;;;;;2.30;1.00;;;11.20;72.10;;;;;;5093571;28;20052;-65
2021/04/10 09:04:06;;;;;;;4.68;1.20;;;11.20;71.70;;;;;;5092863;28;20623;-69
2021/04/10 09:06:31;;;;;;;1.38;0.65;;;11.20;71.10;;;;;;5093463;28;20024;-64
2021/04/10 09:09:15;;;;;;;2.28;1.00;;;11.20;71.30;;;;;;5093228;28;20725;-67
2021/04/10 09:11:43;;;;;;;3.30;1.02;;;11.30;70.30;;;;;;5092667;28;20416;-67
2021/04/10 09:14:09;;;;;;;2.67;1.02;;;11.40;69.40;;;;;;5084302;28;20140;-66
2021/04/10 09:16:48;;;;;;;5.78;1.35;;;11.40;69.50;;;;;;5092922;28;20023;-64
2021/04/10 09:19:31;;;;;;;2.58;0.95;;;11.50;68.90;;;;;;5092463;28;20071;-67
2021/04/10 09:22:01;;;;;;;2.83;1.05;;;11.60;68.40;;;;;;5092804;28;20028;-68
2021/04/10 09:24:41;;;;;;;3.20;1.20;;;11.60;67.70;;;;;;5092292;28;20027;-65
2021/04/10 09:27:28;;;;;;;1.80;1.02;;;11.70;68.00;;;;;;5084439;28;20027;-68
2021/04/10 09:29:59;;;;;;;2.58;0.90;;;11.70;67.80;;;;;;5092887;28;20115;-67
2021/04/10 09:32:41;;;;;;;2.72;0.77;;;11.80;67.00;;;;;;5074457;28;20025;-65
2021/04/10 09:35:12;;;;;;;3.58;0.80;;;11.80;66.00;;;;;;5092238;28;20067;-68
2021/04/10 09:37:52;;;;;;;3.95;0.90;;;11.80;66.70;;;;;;5093053;28;20031;-62
2021/04/10 09:40:47;;;;;;;2.65;0.80;;;11.80;66.60;;;;;;5091807;28;20039;-60
2021/04/10 09:43:14;;;;;;;1.42;1.00;;;11.80;65.60;;;;;;5091834;28;20042;-61
2021/04/10 09:45:40;;;;;;;3.40;1.35;;;11.80;66.10;;;;;;5092897;28;20031;-61
2021/04/10 09:48:10;;;;;;;3.92;1.08;;;11.80;66.50;;;;;;5073945;28;20040;-66
2021/04/10 09:50:51;;;;;;;4.53;1.27;;;11.80;66.40;;;;;;5092446;28;20090;-65
2021/04/10 09:53:19;;;;;;;2.55;1.00;;;11.90;65.90;;;;;;5091456;28;20032;-65
2021/04/10 09:55:56;;;;;;;2.10;0.98;;;11.90;66.00;;;;;;5092585;28;20069;-63
2021/04/10 09:58:23;;;;;;;2.25;1.10;;;11.90;65.60;;;;;;5073480;28;20455;-65
2021/04/10 10:00:54;;;;;;;2.63;0.80;;;11.90;65.30;;;;;;5092357;28;20066;-63
2021/04/10 10:03:23;;;;;;;5.57;1.00;;;12.00;65.40;;;;;;5091760;28;20031;-63
2021/04/10 10:05:51;;;;;;;1.73;1.10;;;12.00;64.90;;;;;;5088965;28;20177;-63
2021/04/10 10:08:19;;;;;;;6.80;0.95;;;12.10;64.60;;;;;;5091651;28;20298;-61
2021/04/10 10:10:51;;;;;;;3.85;0.98;;;12.10;64.10;;;;;;5073116;28;20036;-62
2021/04/10 10:13:19;;;;;;;4.30;0.93;;;12.10;64.00;;;;;;5091793;28;20372;-64
2021/04/10 10:15:47;;;;;;;6.32;1.30;;;12.10;64.00;;;;;;5091794;28;20046;-64
2021/04/10 10:18:16;;;;;;;4.22;1.00;;;12.20;63.80;;;;;;5091538;28;20039;-65
2021/04/10 10:21:06;;;;;;;3.85;1.17;;;12.20;64.10;;;;;;5073848;28;20115;-61
2021/04/10 10:23:45;;;;;;;;;;;12.20;63.80;;;;;;5091955;28;20085;-64
2021/04/10 10:26:17;;;;;;;4.32;1.08;;;12.30;63.80;;;;;;5091259;28;19918;-61
2021/04/10 10:28:45;;;;;;;4.10;0.90;;;12.30;63.80;;;;;;5092266;28;20480;-64
2021/04/10 10:31:20;;;;;;;3.05;0.90;;;12.40;63.70;;;;;;5091225;28;20063;-62
2021/04/10 10:33:47;;;;;;;2.35;1.10;;;12.40;63.20;;;;;;5091903;28;20496;-63
2021/04/10 10:36:14;;;;;;;1.85;1.00;;;12.50;63.20;;;;;;5090751;28;20354;-64
2021/04/10 10:38:43;;;;;;;5.75;1.30;;;12.60;62.30;;;;;;5091363;28;20396;-63
2021/04/10 10:41:10;;;;;;;6.43;1.17;;;12.60;62.20;;;;;;5072852;28;20461;-65
2021/04/10 10:43:37;;;;;;;1.50;0.93;;;12.60;61.90;;;;;;5091916;28;20526;-62
2021/04/10 10:46:07;;;;;;;6.45;1.20;;;12.70;61.80;;;;;;5090619;28;20028;-63
2021/04/10 10:48:34;;;;;;;;;;;12.60;61.70;;;;;;5091984;28;20034;-63
2021/04/10 10:51:00;;;;;;;5.55;1.38;;;12.60;61.80;;;;;;5091828;28;19912;-65
2021/04/10 10:53:28;;;;;;;4.97;1.73;;;12.70;61.70;;;;;;5072333;28;20542;-66
2021/04/10 10:55:53;;;;;;;1.65;1.23;;;12.80;61.40;;;;;;5091089;28;20028;-65
2021/04/10 10:58:19;;;;;;;3.15;1.05;;;12.90;60.90;;;;;;5090575;28;20090;-64
2021/04/10 11:00:45;;;;;;;1.65;0.80;;;13.00;60.50;;;;;;5088846;28;20111;-63
2021/04/10 11:03:21;;;;;;;6.55;1.60;;;13.10;60.30;;;;;;5085806;28;20484;-66
2021/04/10 11:05:49;;;;;;;3.47;1.20;;;13.20;60.40;;;;;;5087013;28;20055;-65
2021/04/10 11:08:19;;;;;;;1.42;0.95;;;13.40;59.90;;;;;;5072695;28;20039;-67
2021/04/10 11:10:45;;;;;;;3.47;1.10;;;13.60;59.10;;;;;;5091439;28;20222;-66
2021/04/10 11:13:14;;;;;;;2.45;1.13;;;13.80;58.50;;;;;;5090650;28;20084;-70
2021/04/10 11:15:43;;;;;;;5.18;1.13;;;13.90;57.80;;;;;;5054457;28;20048;-71
2021/04/10 11:18:27;;;;;;;2.15;1.35;;;14.10;57.60;;;;;;5088720;28;20419;-72
2021/04/10 11:21:14;;;;;;;6.45;1.55;;;14.20;57.20;;;;;;5061750;28;20099;-67
2021/04/10 11:24:09;;;;;;;2.22;1.30;;;14.40;56.20;;;;;;5091198;28;20488;-68
2021/04/10 11:26:44;;;;;;;1.50;1.20;;;14.60;55.90;;;;;;5084532;28;20030;-67
2021/04/10 11:29:22;;;;;;;2.80;1.20;;;14.80;55.20;;;;;;5090408;28;20035;-67
2021/04/10 11:32:12;;;;;;;7.15;1.50;;;14.90;54.90;;;;;;5091342;28;20388;-64
2021/04/10 11:34:39;;;;;;;5.80;1.30;;;15.20;54.60;;;;;;5091453;28;20032;-64
2021/04/10 11:37:07;;;;;;;4.00;1.52;;;15.30;54.00;;;;;;5090785;28;20488;-70
2021/04/10 11:40:06;;;;;;;4.40;1.40;;;15.50;53.20;;;;;;5072260;28;20047;-66
2021/04/10 11:42:38;;;;;;;4.78;1.40;;;15.70;52.70;;;;;;5075330;28;20227;-64
2021/04/10 11:45:07;;;;;;;4.50;1.58;;;15.90;52.10;;;;;;5083453;28;20431;-64
2021/04/10 11:47:35;;;;;;;5.15;1.15;;;15.90;51.60;;;;;;5084190;28;20024;-66
2021/04/10 11:50:12;;;;;;;1.27;1.10;;;16.00;51.20;;;;;;5090413;28;20042;-64
2021/04/10 11:52:39;;;;;;;6.32;1.48;;;16.00;51.50;;;;;;5091145;28;20024;-63
2021/04/10 11:55:17;;;;;;;1.50;0.95;;;16.00;51.80;;;;;;5091136;28;20103;-63
2021/04/10 11:57:44;;;;;;;4.53;1.40;;;16.10;51.10;;;;;;5091280;28;20032;-65
2021/04/10 12:00:13;;;;;;;1.23;0.70;;;16.20;50.80;;;;;;5072371;28;20137;-67
2021/04/10 12:02:42;;;;;;;3.38;1.00;;;16.20;50.40;;;;;;5090554;28;20028;-63
2021/04/10 12:05:21;;;;;;;4.25;1.25;;;16.20;50.60;;;;;;5090955;28;20423;-65
2021/04/10 12:08:10;;;;;;;1.27;0.70;;;16.20;50.60;;;;;;5083609;28;20130;-63
2021/04/10 12:10:38;;;;;;;1.50;0.90;;;16.20;50.70;;;;;;5070975;28;20037;-63
2021/04/10 12:13:04;;;;;;;2.08;1.20;;;16.30;50.20;;;;;;5092670;28;20421;-64
2021/04/10 12:15:34;;;;;;;1.10;0.88;;;16.30;50.10;;;;;;5094134;28;20079;-67
2021/04/10 12:18:00;;;;;;;;;;;16.40;50.20;;;;;;5093195;28;20024;-63
2021/04/10 12:20:26;;;;;;;1.40;1.30;;;16.50;50.00;;;;;;5093811;28;19985;-66
2021/04/10 12:22:52;;;;;;;3.20;0.98;;;16.80;49.60;;;;;;5092348;28;20044;-65
2021/04/10 12:25:19;;;;;;;1.45;0.70;;;17.00;49.10;;;;;;5091076;28;20031;-64
2021/04/10 12:27:44;;;;;;;2.53;0.80;;;17.20;48.90;;;;;;5091747;28;20075;-63
2021/04/10 12:30:11;;;;;;;2.78;0.88;;;17.30;48.00;;;;;;5086818;28;20060;-67
2021/04/10 12:32:37;;;;;;;2.35;0.57;;;17.40;48.10;;;;;;5091588;28;20088;-63
2021/04/10 12:35:03;;;;;;;1.00;0.70;;;17.20;47.70;;;;;;5092806;28;20048;-63
2021/04/10 12:37:29;;;;;;;2.55;0.60;;;17.10;48.00;;;;;;5087692;28;20533;-63
2021/04/10 12:39:55;;;;;;;2.05;0.80;;;17.10;48.60;;;;;;5090866;28;20024;-65
2021/04/10 12:42:21;;;;;;;3.90;0.80;;;17.10;48.60;;;;;;5091337;28;20028;-66
2021/04/10 12:44:46;;;;;;;1.10;0.60;;;17.20;47.80;;;;;;5093734;28;20027;-63
2021/04/10 12:47:19;;;;;;;3.28;0.85;;;17.40;47.40;;;;;;5093153;28;20021;-66
2021/04/10 12:49:46;;;;;;;6.57;1.17;;;17.90;46.80;;;;;;5093850;28;20035;-64
2021/04/10 12:52:12;;;;;;;1.00;0.50;;;18.80;44.80;;;;;;5093332;28;20031;-67
2021/04/10 12:54:38;;;;;;;1.10;0.73;;;19.30;43.40;;;;;;5094178;28;20032;-64
2021/04/10 12:57:08;;;;;;;1.63;0.60;;;19.70;43.10;;;;;;5098212;28;20028;-63